Time;durP1;ratioP1;P1;durP2;ratioP2;P2;SDS_P1;SDS_P2;PMS_P1;PMS_P2;Temp;Humidity;BMP_temperature;BMP_pressure;BME280_temperature;BME280_humidity;BME280_pressure;Samples;Min_cycle;Max_cycle;Signal;HPM_P1;HPM_P2
2023/03/07 00:02:07;;;;;;;7.50;7.00;;;16.80;58.20;;;;;;5089027;28;21667;-79
2023/03/07 00:04:33;;;;;;;7.53;6.97;;;16.70;58.40;;;;;;5073781;28;20416;-79
2023/03/07 00:06:58;;;;;;;8.40;7.70;;;16.70;58.30;;;;;;5092775;28;20047;-79
2023/03/07 00:09:24;;;;;;;7.88;7.22;;;16.70;58.40;;;;;;5070697;28;20424;-79
2023/03/07 00:11:50;;;;;;;7.55;6.95;;;16.70;58.50;;;;;;5086359;28;20432;-79
2023/03/07 00:14:15;;;;;;;7.32;6.72;;;16.60;58.40;;;;;;5094135;28;20043;-78
2023/03/07 00:16:41;;;;;;;7.45;6.95;;;16.60;58.40;;;;;;5086915;28;20093;-79
2023/03/07 00:19:06;;;;;;;7.13;6.63;;;16.60;58.50;;;;;;5086365;28;20064;-78
2023/03/07 00:21:32;;;;;;;7.40;6.85;;;16.60;58.70;;;;;;5067782;28;20063;-78
2023/03/07 00:23:58;;;;;;;7.40;6.70;;;16.60;58.60;;;;;;5068424;28;20059;-78
2023/03/07 00:26:24;;;;;;;8.40;7.63;;;16.60;58.60;;;;;;5075401;28;20044;-79
2023/03/07 00:28:51;;;;;;;7.82;7.22;;;16.60;58.80;;;;;;5081492;28;20074;-79
2023/03/07 00:31:17;;;;;;;7.38;6.78;;;16.50;58.80;;;;;;5089069;28;20032;-78
2023/03/07 00:33:42;;;;;;;7.03;6.53;;;16.50;58.90;;;;;;5093507;28;20570;-78
2023/03/07 00:36:15;;;;;;;6.78;6.28;;;16.50;58.80;;;;;;5094157;28;20043;-79
2023/03/07 00:38:41;;;;;;;6.20;5.75;;;16.50;58.80;;;;;;5083669;28;20044;-79
2023/03/07 00:41:08;;;;;;;7.00;6.40;;;16.40;59.00;;;;;;5093347;28;20455;-79
2023/03/07 00:43:34;;;;;;;7.22;6.63;;;16.40;58.90;;;;;;5072376;28;20097;-79
2023/03/07 00:46:00;;;;;;;6.18;5.68;;;16.40;59.00;;;;;;5082410;28;20043;-79
2023/03/07 00:48:25;;;;;;;6.15;5.72;;;16.40;59.10;;;;;;5091382;28;20064;-79
2023/03/07 00:50:51;;;;;;;6.40;5.90;;;16.40;59.10;;;;;;5088848;28;20046;-78
2023/03/07 00:53:17;;;;;;;6.07;5.60;;;16.30;59.10;;;;;;5090904;28;20054;-78
2023/03/07 00:55:55;;;;;;;5.60;5.20;;;16.30;59.20;;;;;;5094710;28;20043;-79
2023/03/07 00:58:20;;;;;;;6.35;5.85;;;16.30;59.30;;;;;;5070295;28;20055;-79
2023/03/07 01:00:46;;;;;;;5.65;5.25;;;16.20;59.30;;;;;;5097823;28;20347;-79
2023/03/07 01:03:11;;;;;;;6.30;5.80;;;16.20;59.40;;;;;;5092555;28;20047;-79
2023/03/07 01:05:40;;;;;;;5.68;5.28;;;16.20;59.40;;;;;;5091368;28;20088;-79
2023/03/07 01:08:06;;;;;;;4.97;4.63;;;16.20;59.40;;;;;;5093981;28;20040;-79
2023/03/07 01:10:32;;;;;;;6.00;5.50;;;16.20;59.40;;;;;;5065080;28;20048;-78
2023/03/07 01:12:58;;;;;;;5.78;5.38;;;16.20;59.40;;;;;;5092838;28;20040;-79
2023/03/07 01:15:24;;;;;;;5.20;4.80;;;16.20;59.50;;;;;;5069453;28;20127;-79
2023/03/07 01:17:49;;;;;;;5.85;5.45;;;16.20;59.50;;;;;;5089552;28;20119;-79
2023/03/07 01:20:15;;;;;;;5.75;5.40;;;16.10;59.40;;;;;;5090664;28;20561;-79
2023/03/07 01:22:41;;;;;;;5.13;4.82;;;16.10;59.50;;;;;;5092312;28;20048;-79
2023/03/07 01:25:06;;;;;;;5.25;4.95;;;16.10;59.50;;;;;;5096767;28;20044;-78
2023/03/07 01:27:32;;;;;;;5.80;5.30;;;16.10;59.60;;;;;;5093863;28;22443;-78
2023/03/07 01:29:58;;;;;;;5.90;5.50;;;16.10;59.60;;;;;;5090095;28;20119;-78
2023/03/07 01:32:23;;;;;;;5.15;4.75;;;16.00;59.50;;;;;;5071442;28;20441;-78
2023/03/07 01:34:49;;;;;;;4.80;4.50;;;16.00;59.50;;;;;;5086592;28;20039;-78
2023/03/07 01:37:14;;;;;;;4.47;4.18;;;16.00;59.70;;;;;;5094420;28;20044;-79
2023/03/07 01:39:40;;;;;;;4.68;4.38;;;16.00;59.80;;;;;;5092512;28;20048;-79
2023/03/07 01:42:06;;;;;;;4.65;4.35;;;16.00;59.80;;;;;;5092459;28;20040;-79
2023/03/07 01:44:58;;;;;;;5.18;4.88;;;16.00;59.70;;;;;;5066616;28;20514;-78
2023/03/07 01:47:23;;;;;;;4.25;3.95;;;16.00;59.60;;;;;;5089402;28;20460;-78
2023/03/07 01:49:49;;;;;;;4.10;3.90;;;16.00;59.70;;;;;;5090267;28;20583;-79
2023/03/07 01:52:17;;;;;;;4.75;4.45;;;16.00;59.60;;;;;;5071433;28;20052;-79
2023/03/07 01:54:47;;;;;;;4.40;4.10;;;15.90;59.70;;;;;;5070415;28;20109;-79
2023/03/07 01:57:14;;;;;;;3.83;3.63;;;15.90;59.80;;;;;;5069073;28;20130;-79
2023/03/07 01:59:43;;;;;;;4.03;3.72;;;15.90;59.70;;;;;;5070691;28;20047;-79
2023/03/07 02:02:10;;;;;;;4.43;4.13;;;15.90;59.70;;;;;;5054281;28;20048;-79
2023/03/07 02:04:45;;;;;;;3.95;3.65;;;15.90;59.70;;;;;;5052839;28;20540;-79
2023/03/07 02:07:10;;;;;;;3.80;3.60;;;15.90;59.70;;;;;;5054524;28;20060;-79
2023/03/07 02:09:36;;;;;;;3.78;3.58;;;15.90;59.80;;;;;;5068920;28;20070;-78
2023/03/07 02:12:01;;;;;;;3.95;3.72;;;15.90;59.80;;;;;;5054375;28;20089;-79
2023/03/07 02:14:27;;;;;;;3.65;3.45;;;15.90;59.80;;;;;;5068955;28;20051;-78
2023/03/07 02:16:53;;;;;;;3.90;3.70;;;15.90;59.90;;;;;;5094769;28;20042;-79
2023/03/07 02:19:28;;;;;;;4.07;3.88;;;15.80;59.90;;;;;;5089329;28;20072;-79
2023/03/07 02:22:16;;;;;;;3.47;3.28;;;15.80;59.90;;;;;;5061541;28;20066;-79
2023/03/07 02:24:57;;;;;;;3.70;3.50;;;15.80;59.90;;;;;;5067229;28;20043;-79
2023/03/07 02:27:24;;;;;;;3.47;3.28;;;15.80;60.00;;;;;;5072106;28;20043;-79
2023/03/07 02:29:50;;;;;;;3.20;3.00;;;15.80;59.90;;;;;;5072571;28;20028;-79
2023/03/07 02:32:15;;;;;;;2.95;2.78;;;15.80;59.80;;;;;;5074552;28;20041;-78
2023/03/07 02:34:41;;;;;;;3.50;3.22;;;15.70;59.90;;;;;;5092038;28;20067;-79
2023/03/07 02:37:11;;;;;;;2.72;2.55;;;15.70;59.80;;;;;;5069392;28;20048;-79
2023/03/07 02:39:38;;;;;;;2.90;2.80;;;15.80;59.80;;;;;;5067494;28;20043;-79
2023/03/07 02:42:07;;;;;;;3.25;3.05;;;15.70;59.80;;;;;;5066803;28;20036;-79
2023/03/07 02:44:33;;;;;;;3.30;3.10;;;15.80;59.80;;;;;;5069560;28;20520;-79
2023/03/07 02:46:58;;;;;;;2.83;2.72;;;15.70;59.80;;;;;;5088232;28;20055;-79
2023/03/07 02:49:24;;;;;;;2.78;2.58;;;15.70;59.70;;;;;;5086201;28;20040;-79
2023/03/07 02:51:50;;;;;;;2.78;2.67;;;15.80;59.70;;;;;;5088232;28;20159;-79
2023/03/07 02:54:15;;;;;;;3.33;3.13;;;15.80;59.80;;;;;;5093397;28;20127;-79
2023/03/07 02:56:41;;;;;;;3.33;3.13;;;15.70;59.60;;;;;;5089060;28;20466;-79
2023/03/07 02:59:06;;;;;;;2.72;2.63;;;15.80;59.80;;;;;;5093649;28;20055;-79
2023/03/07 03:01:32;;;;;;;3.33;3.13;;;15.70;59.80;;;;;;5084817;28;20048;-78
2023/03/07 03:03:58;;;;;;;2.80;2.67;;;15.70;59.70;;;;;;5064651;28;20028;-78
2023/03/07 03:06:23;;;;;;;2.90;2.70;;;15.70;59.80;;;;;;5095775;28;20035;-79
2023/03/07 03:08:49;;;;;;;3.15;2.95;;;15.70;59.80;;;;;;5089812;28;20036;-78
2023/03/07 03:11:14;;;;;;;3.10;2.90;;;15.70;59.70;;;;;;5091906;28;20572;-78
2023/03/07 03:13:40;;;;;;;3.13;2.95;;;15.60;59.70;;;;;;5085182;28;20044;-79
2023/03/07 03:16:06;;;;;;;2.95;2.75;;;15.60;59.70;;;;;;5089814;28;20060;-79
2023/03/07 03:18:31;;;;;;;2.58;2.47;;;15.70;59.70;;;;;;5091163;28;20051;-79
2023/03/07 03:20:57;;;;;;;3.05;2.88;;;15.60;59.60;;;;;;5095472;28;20046;-79
2023/03/07 03:23:25;;;;;;;2.83;2.63;;;15.60;59.80;;;;;;5096228;28;20035;-79
2023/03/07 03:26:01;;;;;;;2.80;2.60;;;15.60;59.80;;;;;;5092118;28;20104;-79
2023/03/07 03:28:27;;;;;;;2.85;2.65;;;15.60;59.80;;;;;;5052795;28;20126;-79
2023/03/07 03:31:04;;;;;;;2.47;2.38;;;15.60;59.90;;;;;;5066880;28;20056;-79
2023/03/07 03:33:30;;;;;;;2.60;2.50;;;15.60;59.90;;;;;;5070850;28;20123;-79
2023/03/07 03:35:56;;;;;;;2.63;2.50;;;15.60;59.80;;;;;;5093467;28;20123;-79
2023/03/07 03:38:22;;;;;;;2.58;2.47;;;15.60;59.80;;;;;;5091664;28;20039;-79
2023/03/07 03:40:47;;;;;;;2.25;2.15;;;15.60;59.80;;;;;;5091034;28;20126;-78
2023/03/07 03:43:13;;;;;;;2.63;2.47;;;15.60;59.80;;;;;;5089255;28;20079;-78
2023/03/07 03:45:39;;;;;;;3.47;2.70;;;15.60;59.80;;;;;;5073339;28;20047;-79
2023/03/07 03:48:06;;;;;;;2.30;2.20;;;15.60;60.00;;;;;;5085583;28;20067;-78
2023/03/07 03:50:31;;;;;;;2.40;2.30;;;15.60;59.90;;;;;;5088166;28;20047;-77
2023/03/07 03:52:58;;;;;;;2.17;2.08;;;15.60;60.10;;;;;;5088157;28;20421;-78
2023/03/07 03:55:23;;;;;;;2.20;2.10;;;15.50;60.00;;;;;;5093057;28;20051;-78
2023/03/07 03:57:49;;;;;;;2.35;2.25;;;15.60;60.10;;;;;;5094374;28;20048;-78
2023/03/07 04:00:18;;;;;;;2.15;2.05;;;15.50;60.00;;;;;;5091835;28;20067;-78
2023/03/07 04:02:44;;;;;;;2.15;2.05;;;15.50;60.10;;;;;;5071071;28;20557;-78
2023/03/07 04:05:10;;;;;;;2.35;2.17;;;15.60;60.10;;;;;;5065826;28;20529;-79
2023/03/07 04:07:35;;;;;;;1.95;1.85;;;15.50;60.10;;;;;;5086055;28;20048;-78
2023/03/07 04:10:01;;;;;;;2.35;2.15;;;15.60;60.10;;;;;;5091612;28;20069;-78
2023/03/07 04:12:27;;;;;;;2.50;2.40;;;15.50;60.10;;;;;;5094091;28;20032;-78
2023/03/07 04:14:52;;;;;;;1.95;1.85;;;15.50;60.20;;;;;;5093861;28;20131;-78
2023/03/07 04:17:18;;;;;;;2.35;2.25;;;15.50;60.30;;;;;;5084053;28;20161;-78
2023/03/07 04:19:43;;;;;;;2.67;2.20;;;15.50;60.30;;;;;;5088440;28;20050;-78
2023/03/07 04:22:09;;;;;;;2.25;2.15;;;15.50;60.30;;;;;;5089674;28;20573;-79
2023/03/07 04:24:34;;;;;;;2.13;1.98;;;15.50;60.40;;;;;;5086338;28;20048;-78
2023/03/07 04:27:00;;;;;;;2.15;2.05;;;15.50;60.30;;;;;;5085490;28;20398;-78
2023/03/07 04:29:26;;;;;;;2.38;2.28;;;15.50;60.40;;;;;;5087511;28;20134;-78
2023/03/07 04:31:51;;;;;;;2.20;2.03;;;15.50;60.40;;;;;;5090018;28;20036;-78
2023/03/07 04:34:17;;;;;;;2.00;1.80;;;15.50;60.40;;;;;;5088658;28;20047;-79
2023/03/07 04:36:42;;;;;;;2.35;2.25;;;15.50;60.40;;;;;;5083160;28;20091;-79
2023/03/07 04:39:08;;;;;;;2.50;1.83;;;15.50;60.40;;;;;;5068264;28;20035;-79
2023/03/07 04:41:33;;;;;;;1.98;1.88;;;15.50;60.40;;;;;;5082568;28;20181;-79
2023/03/07 04:43:59;;;;;;;2.30;2.10;;;15.50;60.40;;;;;;5085539;28;20491;-78
2023/03/07 04:46:25;;;;;;;1.90;1.80;;;15.40;60.30;;;;;;5090580;28;20042;-79
2023/03/07 04:48:50;;;;;;;1.98;1.83;;;15.50;60.40;;;;;;5083981;28;20094;-78
2023/03/07 04:51:16;;;;;;;1.83;1.73;;;15.40;60.40;;;;;;5089474;28;20401;-78
2023/03/07 04:53:42;;;;;;;2.00;1.90;;;15.40;60.30;;;;;;5066775;28;20407;-78
2023/03/07 04:56:07;;;;;;;2.33;2.22;;;15.40;60.40;;;;;;5051179;28;20033;-78
2023/03/07 04:58:33;;;;;;;2.17;2.08;;;15.50;60.50;;;;;;5067648;28;20048;-78
2023/03/07 05:01:00;;;;;;;2.40;2.20;;;15.40;60.50;;;;;;5086111;28;20036;-78
2023/03/07 05:03:25;;;;;;;2.25;1.77;;;15.40;60.40;;;;;;5096115;28;20134;-78
2023/03/07 05:05:51;;;;;;;2.20;2.10;;;15.40;60.40;;;;;;5088681;28;20131;-77
2023/03/07 05:08:17;;;;;;;2.33;2.22;;;15.40;60.40;;;;;;5086853;28;20032;-78
2023/03/07 05:10:42;;;;;;;1.80;1.70;;;15.40;60.30;;;;;;5088676;28;20419;-77
2023/03/07 05:13:09;;;;;;;1.90;1.80;;;15.40;60.40;;;;;;5093457;28;20040;-77
2023/03/07 05:15:35;;;;;;;1.90;1.80;;;15.40;60.40;;;;;;5091260;28;20367;-78
2023/03/07 05:18:00;;;;;;;2.13;2.03;;;15.40;60.40;;;;;;5088975;28;20046;-78
2023/03/07 05:20:26;;;;;;;1.67;1.58;;;15.40;60.40;;;;;;5086030;28;20055;-78
2023/03/07 05:22:51;;;;;;;1.80;1.70;;;15.40;61.10;;;;;;5087265;28;20543;-78
2023/03/07 05:25:17;;;;;;;2.08;1.98;;;15.40;60.40;;;;;;5089113;28;20059;-77
2023/03/07 05:27:43;;;;;;;1.95;1.85;;;15.40;61.10;;;;;;5065999;28;20036;-78
2023/03/07 05:30:09;;;;;;;1.80;1.67;;;15.40;60.30;;;;;;5069888;28;20127;-78
2023/03/07 05:32:35;;;;;;;1.48;1.38;;;15.40;60.40;;;;;;5090362;28;20040;-78
2023/03/07 05:35:00;;;;;;;1.50;1.40;;;15.40;60.30;;;;;;5086684;28;20156;-79
2023/03/07 05:37:26;;;;;;;1.90;1.80;;;15.40;60.30;;;;;;5051607;28;20116;-79
2023/03/07 05:39:52;;;;;;;1.45;1.45;;;15.40;60.20;;;;;;5088722;28;20041;-78
2023/03/07 05:42:17;;;;;;;1.50;1.40;;;15.40;60.20;;;;;;5090371;28;20109;-78
2023/03/07 05:44:43;;;;;;;1.60;1.50;;;15.40;60.10;;;;;;5090992;28;20039;-78
2023/03/07 05:47:08;;;;;;;1.65;1.55;;;15.40;60.00;;;;;;5082780;28;20036;-78
2023/03/07 05:49:34;;;;;;;1.30;1.23;;;15.40;60.30;;;;;;5086537;28;20036;-77
2023/03/07 05:51:59;;;;;;;1.00;1.00;;;15.40;60.00;;;;;;5090463;28;20101;-78
2023/03/07 05:54:25;;;;;;;1.65;1.55;;;15.40;59.80;;;;;;5088406;28;20489;-78
2023/03/07 05:56:51;;;;;;;1.50;1.40;;;15.40;60.20;;;;;;5092197;28;20039;-78
2023/03/07 05:59:16;;;;;;;1.35;1.25;;;15.40;60.10;;;;;;5091645;28;20035;-77
2023/03/07 06:01:42;;;;;;;1.48;1.38;;;15.40;60.00;;;;;;5077703;28;20054;-79
2023/03/07 06:04:08;;;;;;;1.60;1.50;;;15.40;60.40;;;;;;5086645;28;20630;-79
2023/03/07 06:06:33;;;;;;;6.63;2.20;;;15.40;60.90;;;;;;5094421;28;20104;-75
2023/03/07 06:08:59;;;;;;;6.93;2.33;;;15.50;61.10;;;;;;5093457;28;20047;-77
2023/03/07 06:11:24;;;;;;;4.32;1.98;;;15.40;61.40;;;;;;5092364;28;20405;-77
2023/03/07 06:13:50;;;;;;;3.50;2.65;;;15.40;62.10;;;;;;5085100;28;20084;-77
2023/03/07 06:16:16;;;;;;;2.15;1.92;;;15.40;62.20;;;;;;5087462;28;20398;-77
2023/03/07 06:18:41;;;;;;;5.40;1.70;;;15.50;62.00;;;;;;5090561;28;20087;-77
2023/03/07 06:21:07;;;;;;;2.60;2.03;;;15.50;62.60;;;;;;5070018;28;20520;-75
2023/03/07 06:23:34;;;;;;;2.60;2.05;;;15.60;62.20;;;;;;5092036;28;20142;-78
2023/03/07 06:26:00;;;;;;;3.88;2.20;;;15.60;62.50;;;;;;5078973;28;20047;-78
2023/03/07 06:28:25;;;;;;;3.83;2.15;;;15.60;62.50;;;;;;5081397;28;20090;-77
2023/03/07 06:30:51;;;;;;;2.30;2.08;;;15.70;62.80;;;;;;5076089;28;20053;-79
2023/03/07 06:33:17;;;;;;;2.20;2.00;;;15.70;62.60;;;;;;5068843;28;20040;-79
2023/03/07 06:35:42;;;;;;;1.95;1.80;;;15.70;63.00;;;;;;5086143;28;20148;-79
2023/03/07 06:38:09;;;;;;;5.00;2.13;;;15.70;62.80;;;;;;5088581;28;20062;-77
2023/03/07 06:40:34;;;;;;;2.08;1.90;;;15.80;62.60;;;;;;5082495;28;20072;-79
2023/03/07 06:43:00;;;;;;;1.88;1.77;;;15.80;62.50;;;;;;5077356;28;20060;-79
2023/03/07 06:45:26;;;;;;;2.35;2.17;;;15.80;62.70;;;;;;5087530;28;20070;-77
2023/03/07 06:47:51;;;;;;;5.15;2.55;;;15.70;62.60;;;;;;5080458;28;20401;-76
2023/03/07 06:50:17;;;;;;;3.10;2.90;;;15.80;62.50;;;;;;5070737;28;20043;-78
2023/03/07 06:52:43;;;;;;;30.05;19.17;;;15.70;62.50;;;;;;5070751;28;20456;-77
2023/03/07 06:55:09;;;;;;;78.25;46.60;;;15.80;61.60;;;;;;5084735;28;20036;-78
2023/03/07 06:57:34;;;;;;;172.10;104.82;;;15.80;61.30;;;;;;5092196;28;20524;-79
2023/03/07 07:00:01;;;;;;;209.25;131.55;;;15.80;61.10;;;;;;5080777;28;20446;-79
2023/03/07 07:02:26;;;;;;;232.57;147.02;;;15.80;61.40;;;;;;5083415;28;20036;-76
2023/03/07 07:04:52;;;;;;;241.10;151.57;;;15.80;61.60;;;;;;5080636;28;20063;-77
2023/03/07 07:07:17;;;;;;;222.55;140.70;;;15.90;61.90;;;;;;5079199;28;20036;-78
2023/03/07 07:09:43;;;;;;;204.90;128.25;;;15.90;62.00;;;;;;5085111;28;20497;-78
2023/03/07 07:12:09;;;;;;;185.43;116.55;;;16.00;62.50;;;;;;5081191;28;20128;-78
2023/03/07 07:14:34;;;;;;;172.25;107.60;;;16.00;62.50;;;;;;5084376;28;20566;-82
2023/03/07 07:17:00;;;;;;;170.10;108.15;;;16.10;62.80;;;;;;5077235;28;20044;-81
2023/03/07 07:19:25;;;;;;;169.35;106.82;;;16.10;62.80;;;;;;5087132;28;20040;-80
2023/03/07 07:21:52;;;;;;;158.82;99.95;;;16.20;62.70;;;;;;5082926;28;20056;-82
2023/03/07 07:24:17;;;;;;;155.88;101.53;;;16.20;62.40;;;;;;5093006;28;20097;-82
2023/03/07 07:26:43;;;;;;;150.23;99.45;;;16.20;62.40;;;;;;5092856;28;20039;-80
2023/03/07 07:29:09;;;;;;;147.65;95.00;;;16.30;62.50;;;;;;5070349;28;20047;-81
2023/03/07 07:31:34;;;;;;;145.35;91.65;;;16.30;62.50;;;;;;5094026;28;20531;-81
2023/03/07 07:34:00;;;;;;;143.45;91.72;;;16.30;62.20;;;;;;5090040;28;20051;-81
2023/03/07 07:36:25;;;;;;;138.00;90.22;;;16.20;62.30;;;;;;5094581;28;20065;-81
2023/03/07 07:38:51;;;;;;;138.32;87.80;;;16.20;62.20;;;;;;5097326;28;20048;-81
2023/03/07 07:41:19;;;;;;;133.70;84.20;;;16.30;61.90;;;;;;5089700;28;20040;-81
2023/03/07 07:43:47;;;;;;;128.35;86.63;;;16.30;61.80;;;;;;5098483;28;20044;-80
2023/03/07 07:46:12;;;;;;;123.10;82.25;;;16.30;61.80;;;;;;5090755;28;20114;-81
2023/03/07 07:48:38;;;;;;;123.00;79.55;;;16.40;61.60;;;;;;5072572;28;20128;-81
2023/03/07 07:51:04;;;;;;;122.45;79.25;;;16.40;61.30;;;;;;5072344;28;20040;-81
2023/03/07 07:53:30;;;;;;;113.63;75.88;;;16.50;61.30;;;;;;5095116;28;20425;-81
2023/03/07 07:55:56;;;;;;;112.55;72.85;;;16.50;61.00;;;;;;5085971;28;20043;-81
2023/03/07 07:58:21;;;;;;;116.38;71.35;;;16.50;61.20;;;;;;5056298;28;20081;-81
2023/03/07 08:00:47;;;;;;;105.82;69.03;;;16.50;61.00;;;;;;5095332;28;20539;-80
2023/03/07 08:03:12;;;;;;;108.00;68.53;;;16.50;60.90;;;;;;5094099;28;20177;-80
2023/03/07 08:05:43;;;;;;;100.85;67.65;;;16.50;60.50;;;;;;5089233;28;20046;-81
2023/03/07 08:08:08;;;;;;;101.90;66.68;;;16.60;60.50;;;;;;5067138;28;20100;-80
2023/03/07 08:10:34;;;;;;;104.80;70.28;;;16.60;60.60;;;;;;5091021;28;20126;-81
2023/03/07 08:13:00;;;;;;;102.82;64.72;;;16.60;60.50;;;;;;5073022;28;20047;-78
2023/03/07 08:15:25;;;;;;;102.70;68.07;;;16.60;60.40;;;;;;5068617;28;20043;-80
2023/03/07 08:17:51;;;;;;;98.18;64.57;;;16.60;60.50;;;;;;5089823;28;20126;-79
2023/03/07 08:20:21;;;;;;;91.95;60.92;;;16.70;60.30;;;;;;5086839;28;20070;-80
2023/03/07 08:22:47;;;;;;;97.07;63.25;;;16.70;60.30;;;;;;5092973;28;20508;-79
2023/03/07 08:25:19;;;;;;;88.38;59.33;;;16.70;60.60;;;;;;5068384;28;20539;-80
2023/03/07 08:27:45;;;;;;;85.63;57.92;;;16.80;60.40;;;;;;5087938;28;20051;-80
2023/03/07 08:30:11;;;;;;;83.28;55.33;;;16.80;60.10;;;;;;5082308;28;20052;-80
2023/03/07 08:32:36;;;;;;;83.78;57.47;;;16.80;60.10;;;;;;5082735;28;20066;-79
2023/03/07 08:35:02;;;;;;;79.90;54.80;;;16.90;60.10;;;;;;5090613;28;20509;-80
2023/03/07 08:37:28;;;;;;;78.38;52.80;;;16.90;60.10;;;;;;5088168;28;20040;-81
2023/03/07 08:39:54;;;;;;;77.13;50.60;;;17.00;59.90;;;;;;5088560;28;20490;-81
2023/03/07 08:42:19;;;;;;;77.30;52.35;;;17.10;59.80;;;;;;5069823;28;20119;-81
2023/03/07 08:44:45;;;;;;;76.72;50.83;;;17.00;60.00;;;;;;5084559;28;20050;-79
2023/03/07 08:47:12;;;;;;;77.43;52.38;;;17.00;59.80;;;;;;5091158;28;20093;-81
2023/03/07 08:49:38;;;;;;;71.32;48.75;;;17.10;59.80;;;;;;5086025;28;20049;-81
2023/03/07 08:52:04;;;;;;;67.10;47.30;;;17.20;59.40;;;;;;5089336;28;20131;-80
2023/03/07 08:54:31;;;;;;;68.70;46.30;;;17.20;59.50;;;;;;5085884;28;20127;-79
2023/03/07 08:56:57;;;;;;;66.93;45.92;;;17.20;59.60;;;;;;5068000;28;20641;-80
2023/03/07 08:59:23;;;;;;;64.60;43.92;;;17.20;59.40;;;;;;5092672;28;20497;-82
2023/03/07 09:01:48;;;;;;;61.72;44.05;;;17.30;59.10;;;;;;5085909;28;20039;-81
2023/03/07 09:04:14;;;;;;;59.72;43.17;;;17.30;59.20;;;;;;5055023;28;20075;-80
2023/03/07 09:06:39;;;;;;;60.28;43.20;;;17.30;59.00;;;;;;5067517;28;20578;-80
2023/03/07 09:09:05;;;;;;;56.03;39.33;;;17.40;59.10;;;;;;5046742;28;20076;-79
2023/03/07 09:11:30;;;;;;;60.95;42.05;;;17.40;58.90;;;;;;5083172;28;20507;-81
2023/03/07 09:13:56;;;;;;;58.03;41.42;;;17.40;58.80;;;;;;5068619;28;20055;-81
2023/03/07 09:16:22;;;;;;;57.38;41.28;;;17.50;58.70;;;;;;5063676;28;20043;-81
2023/03/07 09:18:48;;;;;;;53.83;38.88;;;17.60;58.70;;;;;;5092689;28;20102;-79
2023/03/07 09:21:13;;;;;;;49.20;35.63;;;17.60;59.00;;;;;;5075754;28;20079;-79
2023/03/07 09:23:39;;;;;;;54.25;39.55;;;17.70;58.20;;;;;;5092082;28;20047;-78
2023/03/07 09:26:05;;;;;;;51.88;37.20;;;17.80;58.10;;;;;;5065683;28;20060;-78
2023/03/07 09:28:30;;;;;;;49.50;36.08;;;17.80;58.00;;;;;;5089106;28;20045;-78
2023/03/07 09:30:56;;;;;;;56.03;37.47;;;17.80;58.00;;;;;;5090026;28;20532;-82
2023/03/07 09:33:22;;;;;;;49.40;34.90;;;17.90;57.70;;;;;;5094294;28;20065;-79
2023/03/07 09:35:47;;;;;;;48.05;33.63;;;17.90;57.60;;;;;;5093163;28;20045;-77
2023/03/07 09:38:13;;;;;;;45.60;33.20;;;17.90;57.70;;;;;;5092996;28;20040;-78
2023/03/07 09:40:39;;;;;;;46.10;33.15;;;17.90;57.70;;;;;;5093463;28;20536;-79
2023/03/07 09:43:21;;;;;;;44.63;32.13;;;18.00;57.30;;;;;;5097485;28;20052;-79
2023/03/07 09:46:13;;;;;;;42.50;32.05;;;18.00;57.50;;;;;;5084172;28;20520;-79
2023/03/07 09:48:51;;;;;;;41.35;29.35;;;18.00;57.50;;;;;;5050545;28;20063;-75
2023/03/07 09:51:23;;;;;;;41.58;30.92;;;18.00;57.40;;;;;;5094430;28;20114;-79
2023/03/07 09:53:53;;;;;;;40.22;30.50;;;18.00;57.30;;;;;;5071526;28;20036;-78
2023/03/07 09:56:23;;;;;;;39.13;28.67;;;18.00;57.50;;;;;;5090882;28;20048;-79
2023/03/07 09:59:15;;;;;;;38.83;28.40;;;18.00;57.50;;;;;;5089817;28;20206;-78
2023/03/07 10:01:41;;;;;;;39.03;28.27;;;18.10;57.50;;;;;;5088688;28;20055;-79
2023/03/07 10:04:09;;;;;;;36.83;27.65;;;18.00;57.60;;;;;;5069734;28;20043;-79
2023/03/07 10:06:39;;;;;;;37.80;27.75;;;18.00;57.60;;;;;;5068728;28;20083;-78
2023/03/07 10:09:09;;;;;;;41.20;28.50;;;18.00;57.50;;;;;;5097285;28;20036;-78
2023/03/07 10:11:47;;;;;;;33.30;24.20;;;18.30;57.10;;;;;;5053177;28;20047;-79
2023/03/07 10:14:29;;;;;;;35.17;24.77;;;18.50;55.70;;;;;;5090404;28;20040;-78
2023/03/07 10:17:01;;;;;;;30.48;23.45;;;18.40;56.50;;;;;;5091300;28;20044;-78
2023/03/07 10:19:38;;;;;;;30.90;22.75;;;18.40;56.40;;;;;;5092813;28;20572;-80
2023/03/07 10:22:17;;;;;;;34.63;25.08;;;18.50;56.10;;;;;;5068266;28;20056;-79
2023/03/07 10:25:18;;;;;;;34.78;25.38;;;18.50;56.30;;;;;;5041697;28;20526;-80
2023/03/07 10:27:45;;;;;;;31.58;23.33;;;18.40;56.70;;;;;;5068785;28;20044;-80
2023/03/07 10:30:15;;;;;;;31.30;22.60;;;18.30;56.90;;;;;;5071221;28;20545;-80
2023/03/07 10:32:46;;;;;;;32.10;23.55;;;18.30;56.70;;;;;;5072823;28;20456;-80
2023/03/07 10:35:12;;;;;;;30.75;22.70;;;18.30;56.70;;;;;;5088543;28;20044;-79
2023/03/07 10:37:50;;;;;;;31.50;23.10;;;18.30;56.70;;;;;;5093214;28;20044;-79
2023/03/07 10:40:17;;;;;;;30.13;23.33;;;18.30;56.80;;;;;;5089209;28;20045;-80
2023/03/07 10:42:43;;;;;;;29.63;22.50;;;18.30;56.70;;;;;;5095585;28;20051;-79
2023/03/07 10:45:12;;;;;;;28.08;22.10;;;18.30;56.60;;;;;;5072810;28;20044;-79
2023/03/07 10:47:38;;;;;;;26.30;20.67;;;18.30;56.80;;;;;;5071077;28;20404;-79
2023/03/07 10:50:33;;;;;;;28.00;20.85;;;18.30;56.70;;;;;;5091112;28;20037;-79
2023/03/07 10:53:00;;;;;;;25.90;19.48;;;18.20;56.80;;;;;;5065730;28;20047;-79
2023/03/07 10:55:38;;;;;;;25.63;19.75;;;18.20;56.80;;;;;;5089147;28;20098;-79
2023/03/07 10:58:23;;;;;;;25.20;20.42;;;18.20;56.80;;;;;;5089488;28;20040;-78
2023/03/07 11:01:16;;;;;;;24.77;19.10;;;18.20;57.00;;;;;;5094026;28;20043;-78
2023/03/07 11:03:58;;;;;;;24.45;18.60;;;18.20;56.80;;;;;;5080341;28;20128;-77
2023/03/07 11:06:27;;;;;;;21.15;17.35;;;18.20;56.70;;;;;;5072593;28;20505;-77
2023/03/07 11:08:52;;;;;;;22.85;18.63;;;18.30;56.80;;;;;;5072529;28;20065;-77
2023/03/07 11:11:25;;;;;;;25.42;18.45;;;18.20;56.90;;;;;;5074252;28;20051;-77
2023/03/07 11:14:10;;;;;;;22.77;18.27;;;18.20;56.90;;;;;;5067707;28;20059;-77
2023/03/07 11:16:40;;;;;;;22.38;17.83;;;18.30;56.80;;;;;;5090028;28;20044;-78
2023/03/07 11:19:24;;;;;;;20.35;16.30;;;18.40;56.60;;;;;;5087450;28;20463;-79
2023/03/07 11:21:54;;;;;;;21.58;16.63;;;18.40;56.40;;;;;;5066940;28;20600;-79
2023/03/07 11:24:27;;;;;;;20.17;15.85;;;18.40;56.40;;;;;;5067222;28;20036;-77
2023/03/07 11:26:54;;;;;;;20.23;16.17;;;18.50;56.30;;;;;;5090133;28;20104;-76
2023/03/07 11:29:19;;;;;;;22.58;15.57;;;18.50;55.80;;;;;;5079455;28;20074;-77
2023/03/07 11:31:59;;;;;;;17.47;15.03;;;18.60;55.90;;;;;;4378762;28;10000794;-76
2023/03/07 11:34:32;;;;;;;18.88;13.40;;;18.60;55.80;;;;;;5085192;28;20051;-76
2023/03/07 11:37:17;;;;;;;16.40;14.15;;;18.80;55.60;;;;;;5049026;28;20051;-77
2023/03/07 11:39:44;;;;;;;19.73;14.07;;;19.00;55.30;;;;;;5089370;28;20097;-76
2023/03/07 11:42:21;;;;;;;17.92;13.55;;;19.30;54.70;;;;;;5070274;28;20067;-77
2023/03/07 11:45:26;;;;;;;17.02;13.68;;;19.40;54.40;;;;;;5061687;28;20043;-76
2023/03/07 11:47:55;;;;;;;16.23;13.18;;;19.70;53.90;;;;;;5068510;28;20187;-76
2023/03/07 11:50:22;;;;;;;15.85;13.05;;;19.90;53.10;;;;;;5080515;28;20047;-77
2023/03/07 11:53:07;;;;;;;17.02;13.93;;;19.90;53.20;;;;;;5090411;28;20016;-76
2023/03/07 11:55:40;;;;;;;15.38;12.50;;;19.90;53.20;;;;;;4723336;28;10000423;-75
2023/03/07 11:58:28;;;;;;;19.77;12.63;;;20.10;53.10;;;;;;5049064;28;20101;-78
2023/03/07 12:01:15;;;;;;;17.55;12.98;;;20.20;52.80;;;;;;5087337;28;20104;-77
2023/03/07 12:04:10;;;;;;;20.77;13.90;;;20.30;52.60;;;;;;5060659;28;20712;-79
2023/03/07 12:07:02;;;;;;;15.55;12.65;;;20.30;52.70;;;;;;5052071;28;20527;-79
2023/03/07 12:09:53;;;;;;;19.98;12.45;;;20.40;52.50;;;;;;5068500;28;20102;-79
2023/03/07 12:12:36;;;;;;;16.35;12.75;;;20.50;52.40;;;;;;5075107;28;20066;-79
2023/03/07 12:15:33;;;;;;;15.63;12.30;;;20.60;52.20;;;;;;5087751;28;20047;-79
2023/03/07 12:18:15;;;;;;;20.23;13.23;;;20.70;52.00;;;;;;5083996;28;20059;-79
2023/03/07 12:20:54;;;;;;;14.43;12.20;;;20.70;52.40;;;;;;5062818;28;20390;-78
2023/03/07 12:23:35;;;;;;;17.63;12.38;;;20.70;52.20;;;;;;5061376;28;20048;-79
2023/03/07 12:26:04;;;;;;;14.85;12.88;;;20.70;52.40;;;;;;5066788;28;20170;-79
2023/03/07 12:28:50;;;;;;;17.35;13.30;;;20.80;53.30;;;;;;5071298;28;20083;-79
2023/03/07 12:31:31;;;;;;;15.43;11.85;;;20.90;53.00;;;;;;5071395;28;20071;-77
2023/03/07 12:34:08;;;;;;;15.30;12.57;;;20.80;53.00;;;;;;5064441;28;20048;-79
2023/03/07 12:36:54;;;;;;;18.90;11.30;;;20.80;53.20;;;;;;5080219;28;20527;-78
2023/03/07 12:39:24;;;;;;;15.05;11.25;;;20.80;53.10;;;;;;5050589;28;20528;-78
2023/03/07 12:42:25;;;;;;;14.48;11.23;;;20.70;53.20;;;;;;5082749;28;20066;-77
2023/03/07 12:44:54;;;;;;;15.10;11.40;;;20.60;53.60;;;;;;5059312;28;20051;-78